sensor_id;sensor_type;location;lat;lon;timestamp;pressure;altitude;pressure_sealevel;temperature;humidity
59315;BME280;46521;50.160;20.802;2023-09-19T00:03:10;99062.84;;;19.79;61.70
59315;BME280;46521;50.160;20.802;2023-09-19T00:13:13;99060.64;;;19.76;62.16
59315;BME280;46521;50.160;20.802;2023-09-19T00:23:14;99054.23;;;19.77;62.22
59315;BME280;46521;50.160;20.802;2023-09-19T00:33:16;99040.08;;;19.82;62.18
59315;BME280;46521;50.160;20.802;2023-09-19T00:43:17;99031.62;;;19.90;62.44
59315;BME280;46521;50.160;20.802;2023-09-19T00:53:21;99023.18;;;19.98;62.20
59315;BME280;46521;50.160;20.802;2023-09-19T01:03:24;99007.39;;;20.02;62.22
59315;BME280;46521;50.160;20.802;2023-09-19T01:13:34;99000.73;;;20.05;62.46
59315;BME280;46521;50.160;20.802;2023-09-19T01:33:56;98992.58;;;19.99;63.05
59315;BME280;46521;50.160;20.802;2023-09-19T01:44:01;98981.59;;;20.01;63.01
59315;BME280;46521;50.160;20.802;2023-09-19T01:54:11;98975.00;;;20.09;62.91
59315;BME280;46521;50.160;20.802;2023-09-19T02:04:13;98983.97;;;19.97;63.06
59315;BME280;46521;50.160;20.802;2023-09-19T02:14:15;98993.15;;;19.68;63.49
59315;BME280;46521;50.160;20.802;2023-09-19T02:24:16;98985.65;;;19.53;63.79
59315;BME280;46521;50.160;20.802;2023-09-19T02:34:18;98971.84;;;19.44;64.73
59315;BME280;46521;50.160;20.802;2023-09-19T02:44:20;98959.80;;;19.47;64.91
59315;BME280;46521;50.160;20.802;2023-09-19T02:54:22;98942.42;;;19.49;65.17
59315;BME280;46521;50.160;20.802;2023-09-19T03:04:24;98937.06;;;19.49;65.80
59315;BME280;46521;50.160;20.802;2023-09-19T03:14:27;98931.14;;;19.47;66.26
59315;BME280;46521;50.160;20.802;2023-09-19T03:24:31;98933.81;;;19.47;66.38
59315;BME280;46521;50.160;20.802;2023-09-19T03:34:36;98909.61;;;19.42;66.95
59315;BME280;46521;50.160;20.802;2023-09-19T03:44:38;98898.37;;;19.45;67.07
59315;BME280;46521;50.160;20.802;2023-09-19T03:54:40;98892.94;;;19.40;66.90
59315;BME280;46521;50.160;20.802;2023-09-19T04:04:42;98888.66;;;19.39;67.27
59315;BME280;46521;50.160;20.802;2023-09-19T04:14:44;98894.98;;;19.33;67.34
59315;BME280;46521;50.160;20.802;2023-09-19T04:24:45;98891.23;;;19.34;67.57
59315;BME280;46521;50.160;20.802;2023-09-19T04:34:46;98859.05;;;19.34;67.74
59315;BME280;46521;50.160;20.802;2023-09-19T04:44:51;98868.25;;;19.38;67.51
59315;BME280;46521;50.160;20.802;2023-09-19T04:54:54;98849.48;;;19.38;67.54
59315;BME280;46521;50.160;20.802;2023-09-19T05:04:55;98858.91;;;19.40;67.69
59315;BME280;46521;50.160;20.802;2023-09-19T05:15:00;98858.24;;;19.50;67.85
59315;BME280;46521;50.160;20.802;2023-09-19T05:25:02;98861.80;;;19.56;67.75
59315;BME280;46521;50.160;20.802;2023-09-19T05:35:05;98852.95;;;19.55;67.74
59315;BME280;46521;50.160;20.802;2023-09-19T05:45:11;98860.01;;;19.61;67.94
59315;BME280;46521;50.160;20.802;2023-09-19T05:55:19;98859.02;;;19.68;67.71
59315;BME280;46521;50.160;20.802;2023-09-19T06:05:22;98862.75;;;19.84;67.73
59315;BME280;46521;50.160;20.802;2023-09-19T06:15:24;98870.86;;;19.89;67.81
59315;BME280;46521;50.160;20.802;2023-09-19T06:25:26;98871.60;;;19.84;68.25
59315;BME280;46521;50.160;20.802;2023-09-19T06:35:28;98872.73;;;19.88;68.18
59315;BME280;46521;50.160;20.802;2023-09-19T06:45:34;98892.78;;;20.03;68.30
59315;BME280;46521;50.160;20.802;2023-09-19T06:55:35;98891.34;;;20.17;67.77
59315;BME280;46521;50.160;20.802;2023-09-19T07:05:38;98898.64;;;20.44;67.70
59315;BME280;46521;50.160;20.802;2023-09-19T07:15:40;98908.88;;;20.47;67.51
59315;BME280;46521;50.160;20.802;2023-09-19T07:25:47;98917.78;;;20.25;67.76
59315;BME280;46521;50.160;20.802;2023-09-19T07:35:49;98930.50;;;20.13;67.90
59315;BME280;46521;50.160;20.802;2023-09-19T07:45:51;98942.91;;;19.97;68.87
59315;BME280;46521;50.160;20.802;2023-09-19T07:55:52;98946.66;;;19.79;69.50
59315;BME280;46521;50.160;20.802;2023-09-19T08:05:56;98946.08;;;19.43;70.06
59315;BME280;46521;50.160;20.802;2023-09-19T08:15:58;98953.95;;;19.16;71.05
59315;BME280;46521;50.160;20.802;2023-09-19T08:26:00;98959.70;;;19.07;71.72
59315;BME280;46521;50.160;20.802;2023-09-19T08:36:07;98965.15;;;19.13;72.54
59315;BME280;46521;50.160;20.802;2023-09-19T08:46:11;98968.55;;;19.08;72.57
59315;BME280;46521;50.160;20.802;2023-09-19T08:56:17;98974.19;;;18.95;72.88
59315;BME280;46521;50.160;20.802;2023-09-19T09:06:20;98971.18;;;18.79;73.32
59315;BME280;46521;50.160;20.802;2023-09-19T09:16:22;98981.71;;;18.69;73.86
59315;BME280;46521;50.160;20.802;2023-09-19T09:26:41;98985.67;;;18.66;74.18
59315;BME280;46521;50.160;20.802;2023-09-19T09:36:48;98993.23;;;18.69;74.47
59315;BME280;46521;50.160;20.802;2023-09-19T09:46:50;98997.31;;;18.72;74.45
59315;BME280;46521;50.160;20.802;2023-09-19T09:56:59;99011.78;;;18.59;74.86
59315;BME280;46521;50.160;20.802;2023-09-19T10:07:02;99011.09;;;18.52;75.22
59315;BME280;46521;50.160;20.802;2023-09-19T10:17:10;99017.07;;;18.18;75.71
59315;BME280;46521;50.160;20.802;2023-09-19T10:27:11;99063.52;;;17.82;76.48
59315;BME280;46521;50.160;20.802;2023-09-19T10:37:16;99080.24;;;17.65;76.82
59315;BME280;46521;50.160;20.802;2023-09-19T10:47:18;99096.64;;;17.69;76.97
59315;BME280;46521;50.160;20.802;2023-09-19T10:57:23;99114.78;;;17.67;77.28
59315;BME280;46521;50.160;20.802;2023-09-19T11:07:25;99133.14;;;17.63;77.49
59315;BME280;46521;50.160;20.802;2023-09-19T11:17:36;99134.69;;;17.71;77.49
59315;BME280;46521;50.160;20.802;2023-09-19T11:38:08;99136.09;;;18.16;78.20
59315;BME280;46521;50.160;20.802;2023-09-19T11:48:23;99141.94;;;18.25;78.07
59315;BME280;46521;50.160;20.802;2023-09-19T11:58:29;99155.69;;;18.40;78.90
59315;BME280;46521;50.160;20.802;2023-09-19T12:08:32;99153.58;;;18.54;78.76
59315;BME280;46521;50.160;20.802;2023-09-19T12:18:34;99169.33;;;18.62;78.92
59315;BME280;46521;50.160;20.802;2023-09-19T12:28:41;99172.23;;;18.61;78.61
59315;BME280;46521;50.160;20.802;2023-09-19T12:38:48;99169.30;;;18.50;78.99
59315;BME280;46521;50.160;20.802;2023-09-19T12:49:16;99174.78;;;18.44;78.71
59315;BME280;46521;50.160;20.802;2023-09-19T12:59:29;99177.45;;;18.44;79.58
59315;BME280;46521;50.160;20.802;2023-09-19T13:09:32;99195.48;;;18.36;79.57
59315;BME280;46521;50.160;20.802;2023-09-19T13:19:39;99190.46;;;18.28;79.76
59315;BME280;46521;50.160;20.802;2023-09-19T13:29:41;99197.08;;;18.26;80.31
59315;BME280;46521;50.160;20.802;2023-09-19T13:39:42;99208.80;;;18.13;80.01
59315;BME280;46521;50.160;20.802;2023-09-19T13:49:48;99217.97;;;18.05;80.31
59315;BME280;46521;50.160;20.802;2023-09-19T13:59:52;99208.79;;;18.01;80.33
59315;BME280;46521;50.160;20.802;2023-09-19T14:09:57;99221.26;;;18.07;80.75
59315;BME280;46521;50.160;20.802;2023-09-19T14:19:58;99222.52;;;18.05;80.69
59315;BME280;46521;50.160;20.802;2023-09-19T14:30:00;99233.45;;;18.03;80.75
59315;BME280;46521;50.160;20.802;2023-09-19T14:40:01;99234.19;;;18.10;81.18
59315;BME280;46521;50.160;20.802;2023-09-19T14:50:05;99245.34;;;18.07;80.98
59315;BME280;46521;50.160;20.802;2023-09-19T15:00:07;99269.88;;;18.04;81.53
59315;BME280;46521;50.160;20.802;2023-09-19T15:10:13;99269.03;;;18.04;81.59
59315;BME280;46521;50.160;20.802;2023-09-19T15:20:14;99287.99;;;18.02;81.72
59315;BME280;46521;50.160;20.802;2023-09-19T15:30:16;99293.34;;;18.02;82.17
59315;BME280;46521;50.160;20.802;2023-09-19T15:40:17;99296.63;;;18.04;82.18
59315;BME280;46521;50.160;20.802;2023-09-19T15:50:20;99300.34;;;18.03;81.92
59315;BME280;46521;50.160;20.802;2023-09-19T16:00:22;99300.70;;;18.07;81.99
59315;BME280;46521;50.160;20.802;2023-09-19T16:10:24;99297.80;;;18.08;81.96
59315;BME280;46521;50.160;20.802;2023-09-19T16:20:25;99305.95;;;18.13;81.95
59315;BME280;46521;50.160;20.802;2023-09-19T16:30:31;99322.50;;;18.10;81.74
59315;BME280;46521;50.160;20.802;2023-09-19T16:40:35;99334.55;;;18.01;82.00
59315;BME280;46521;50.160;20.802;2023-09-19T16:50:37;99339.14;;;17.94;82.00
59315;BME280;46521;50.160;20.802;2023-09-19T17:00:39;99340.34;;;17.98;81.98
59315;BME280;46521;50.160;20.802;2023-09-19T17:10:40;99345.25;;;18.01;81.38
59315;BME280;46521;50.160;20.802;2023-09-19T17:20:47;99354.30;;;18.00;81.79
59315;BME280;46521;50.160;20.802;2023-09-19T17:30:48;99360.91;;;17.97;81.97
59315;BME280;46521;50.160;20.802;2023-09-19T17:40:51;99379.64;;;17.97;81.76
59315;BME280;46521;50.160;20.802;2023-09-19T17:51:00;99385.21;;;17.96;81.72
59315;BME280;46521;50.160;20.802;2023-09-19T18:01:16;99407.06;;;17.93;81.96
59315;BME280;46521;50.160;20.802;2023-09-19T18:11:19;99402.56;;;17.87;81.78
59315;BME280;46521;50.160;20.802;2023-09-19T18:21:25;99410.08;;;17.78;82.01
59315;BME280;46521;50.160;20.802;2023-09-19T18:31:28;99408.80;;;17.80;81.85
59315;BME280;46521;50.160;20.802;2023-09-19T18:41:30;99426.49;;;17.81;81.60
59315;BME280;46521;50.160;20.802;2023-09-19T18:51:32;99446.25;;;17.80;81.87
59315;BME280;46521;50.160;20.802;2023-09-19T19:01:35;99453.69;;;17.78;81.68
59315;BME280;46521;50.160;20.802;2023-09-19T19:11:37;99462.77;;;17.77;81.78
59315;BME280;46521;50.160;20.802;2023-09-19T19:21:39;99466.20;;;17.59;81.68
59315;BME280;46521;50.160;20.802;2023-09-19T19:31:40;99477.77;;;17.53;82.04
59315;BME280;46521;50.160;20.802;2023-09-19T19:41:42;99485.19;;;17.51;82.25
59315;BME280;46521;50.160;20.802;2023-09-19T19:51:45;99483.61;;;17.43;82.04
59315;BME280;46521;50.160;20.802;2023-09-19T20:01:47;99491.70;;;17.30;82.15
59315;BME280;46521;50.160;20.802;2023-09-19T20:11:49;99489.34;;;17.15;82.65
59315;BME280;46521;50.160;20.802;2023-09-19T20:21:50;99495.17;;;17.05;82.58
59315;BME280;46521;50.160;20.802;2023-09-19T20:31:52;99501.96;;;17.01;82.94
59315;BME280;46521;50.160;20.802;2023-09-19T20:41:55;99488.66;;;16.88;82.62
59315;BME280;46521;50.160;20.802;2023-09-19T20:51:56;99508.59;;;16.85;82.82
59315;BME280;46521;50.160;20.802;2023-09-19T21:01:59;99512.91;;;16.86;82.47
59315;BME280;46521;50.160;20.802;2023-09-19T21:12:01;99519.69;;;16.89;82.78
59315;BME280;46521;50.160;20.802;2023-09-19T21:22:03;99529.99;;;16.79;82.16
59315;BME280;46521;50.160;20.802;2023-09-19T21:32:05;99533.30;;;16.67;82.44
59315;BME280;46521;50.160;20.802;2023-09-19T21:42:06;99527.56;;;16.64;82.59
59315;BME280;46521;50.160;20.802;2023-09-19T21:52:08;99531.28;;;16.56;82.49
59315;BME280;46521;50.160;20.802;2023-09-19T22:02:10;99534.22;;;16.41;82.38
59315;BME280;46521;50.160;20.802;2023-09-19T22:12:12;99527.85;;;16.35;82.34
59315;BME280;46521;50.160;20.802;2023-09-19T22:22:14;99530.55;;;16.29;81.93
59315;BME280;46521;50.160;20.802;2023-09-19T22:32:18;99539.16;;;16.17;82.21
59315;BME280;46521;50.160;20.802;2023-09-19T22:42:19;99540.00;;;16.18;82.46
59315;BME280;46521;50.160;20.802;2023-09-19T22:52:24;99544.49;;;16.17;82.01
59315;BME280;46521;50.160;20.802;2023-09-19T23:02:29;99553.96;;;16.13;82.32
59315;BME280;46521;50.160;20.802;2023-09-19T23:12:31;99548.83;;;16.12;81.80
59315;BME280;46521;50.160;20.802;2023-09-19T23:22:33;99554.77;;;16.14;81.88
59315;BME280;46521;50.160;20.802;2023-09-19T23:32:36;99566.70;;;16.11;81.48
59315;BME280;46521;50.160;20.802;2023-09-19T23:42:38;99566.28;;;16.01;81.44
59315;BME280;46521;50.160;20.802;2023-09-19T23:52:41;99565.47;;;16.00;80.97
